sensor_id;sensor_type;location;lat;lon;timestamp;P1;durP1;ratioP1;P2;durP2;ratioP2
32475;SDS011;18929;48.008;10.882;2022-08-01T00:02:01;2.03;;;1.02;;
32475;SDS011;18929;48.008;10.882;2022-08-01T00:04:28;2.53;;;1.80;;
32475;SDS011;18929;48.008;10.882;2022-08-01T00:06:55;2.72;;;1.92;;
32475;SDS011;18929;48.008;10.882;2022-08-01T00:09:22;2.03;;;1.50;;
32475;SDS011;18929;48.008;10.882;2022-08-01T00:11:49;2.33;;;1.17;;
32475;SDS011;18929;48.008;10.882;2022-08-01T00:14:16;4.70;;;1.80;;
32475;SDS011;18929;48.008;10.882;2022-08-01T00:16:43;2.75;;;1.60;;
32475;SDS011;18929;48.008;10.882;2022-08-01T00:19:11;1.92;;;1.35;;
32475;SDS011;18929;48.008;10.882;2022-08-01T00:21:38;2.63;;;1.60;;
32475;SDS011;18929;48.008;10.882;2022-08-01T00:24:06;3.65;;;1.60;;
32475;SDS011;18929;48.008;10.882;2022-08-01T00:26:33;1.88;;;1.40;;
32475;SDS011;18929;48.008;10.882;2022-08-01T00:29:00;1.65;;;1.40;;
32475;SDS011;18929;48.008;10.882;2022-08-01T00:31:27;2.13;;;1.50;;
32475;SDS011;18929;48.008;10.882;2022-08-01T00:33:54;1.60;;;1.48;;
32475;SDS011;18929;48.008;10.882;2022-08-01T00:36:22;2.35;;;1.30;;
32475;SDS011;18929;48.008;10.882;2022-08-01T00:38:49;1.92;;;1.67;;
32475;SDS011;18929;48.008;10.882;2022-08-01T00:41:16;3.63;;;1.58;;
32475;SDS011;18929;48.008;10.882;2022-08-01T00:43:43;4.45;;;1.85;;
32475;SDS011;18929;48.008;10.882;2022-08-01T00:46:10;2.30;;;1.48;;
32475;SDS011;18929;48.008;10.882;2022-08-01T00:48:37;3.10;;;1.70;;
32475;SDS011;18929;48.008;10.882;2022-08-01T00:51:04;4.13;;;1.60;;
32475;SDS011;18929;48.008;10.882;2022-08-01T00:53:33;3.47;;;1.50;;
32475;SDS011;18929;48.008;10.882;2022-08-01T00:56:00;2.47;;;1.60;;
32475;SDS011;18929;48.008;10.882;2022-08-01T00:58:28;2.75;;;1.75;;
32475;SDS011;18929;48.008;10.882;2022-08-01T01:00:57;3.22;;;1.50;;
32475;SDS011;18929;48.008;10.882;2022-08-01T01:03:24;3.25;;;1.60;;
32475;SDS011;18929;48.008;10.882;2022-08-01T01:05:54;2.58;;;1.65;;
32475;SDS011;18929;48.008;10.882;2022-08-01T01:08:30;3.45;;;1.70;;
32475;SDS011;18929;48.008;10.882;2022-08-01T01:11:04;4.70;;;1.60;;
32475;SDS011;18929;48.008;10.882;2022-08-01T01:13:37;3.38;;;1.63;;
32475;SDS011;18929;48.008;10.882;2022-08-01T01:16:08;1.58;;;1.40;;
32475;SDS011;18929;48.008;10.882;2022-08-01T01:18:42;2.15;;;1.70;;
32475;SDS011;18929;48.008;10.882;2022-08-01T01:21:14;1.75;;;1.42;;
32475;SDS011;18929;48.008;10.882;2022-08-01T01:24:10;2.42;;;1.70;;
32475;SDS011;18929;48.008;10.882;2022-08-01T01:26:50;2.15;;;1.80;;
32475;SDS011;18929;48.008;10.882;2022-08-01T01:29:25;3.58;;;1.55;;
32475;SDS011;18929;48.008;10.882;2022-08-01T01:31:57;2.90;;;1.67;;
32475;SDS011;18929;48.008;10.882;2022-08-01T01:34:31;1.98;;;1.65;;
32475;SDS011;18929;48.008;10.882;2022-08-01T01:37:02;3.10;;;1.80;;
32475;SDS011;18929;48.008;10.882;2022-08-01T01:39:33;3.35;;;1.60;;
32475;SDS011;18929;48.008;10.882;2022-08-01T01:42:02;2.17;;;1.75;;
32475;SDS011;18929;48.008;10.882;2022-08-01T01:44:33;2.00;;;1.58;;
32475;SDS011;18929;48.008;10.882;2022-08-01T01:47:02;2.08;;;1.50;;
32475;SDS011;18929;48.008;10.882;2022-08-01T01:49:29;2.75;;;1.85;;
32475;SDS011;18929;48.008;10.882;2022-08-01T01:51:58;3.38;;;1.85;;
32475;SDS011;18929;48.008;10.882;2022-08-01T01:54:28;2.85;;;1.67;;
32475;SDS011;18929;48.008;10.882;2022-08-01T01:56:58;2.22;;;1.70;;
32475;SDS011;18929;48.008;10.882;2022-08-01T01:59:28;2.00;;;1.30;;
32475;SDS011;18929;48.008;10.882;2022-08-01T02:02:01;2.65;;;1.88;;
32475;SDS011;18929;48.008;10.882;2022-08-01T02:04:30;1.95;;;1.50;;
32475;SDS011;18929;48.008;10.882;2022-08-01T02:06:59;4.32;;;1.73;;
32475;SDS011;18929;48.008;10.882;2022-08-01T02:09:27;3.35;;;1.75;;
32475;SDS011;18929;48.008;10.882;2022-08-01T02:11:55;5.28;;;1.80;;
32475;SDS011;18929;48.008;10.882;2022-08-01T02:14:25;4.22;;;1.60;;
32475;SDS011;18929;48.008;10.882;2022-08-01T02:16:53;2.67;;;1.50;;
32475;SDS011;18929;48.008;10.882;2022-08-01T02:19:24;2.05;;;1.40;;
32475;SDS011;18929;48.008;10.882;2022-08-01T02:21:52;3.53;;;1.70;;
32475;SDS011;18929;48.008;10.882;2022-08-01T02:24:24;3.85;;;1.85;;
32475;SDS011;18929;48.008;10.882;2022-08-01T02:26:57;2.50;;;1.95;;
32475;SDS011;18929;48.008;10.882;2022-08-01T02:29:33;2.97;;;1.90;;
32475;SDS011;18929;48.008;10.882;2022-08-01T02:32:04;2.80;;;1.75;;
32475;SDS011;18929;48.008;10.882;2022-08-01T02:34:34;2.42;;;1.90;;
32475;SDS011;18929;48.008;10.882;2022-08-01T02:37:01;3.38;;;2.00;;
32475;SDS011;18929;48.008;10.882;2022-08-01T02:39:31;2.50;;;1.75;;
32475;SDS011;18929;48.008;10.882;2022-08-01T02:42:02;2.70;;;1.70;;
32475;SDS011;18929;48.008;10.882;2022-08-01T02:44:35;2.47;;;1.65;;
32475;SDS011;18929;48.008;10.882;2022-08-01T02:47:05;2.75;;;1.85;;
32475;SDS011;18929;48.008;10.882;2022-08-01T02:49:35;3.25;;;1.70;;
32475;SDS011;18929;48.008;10.882;2022-08-01T02:52:07;3.42;;;1.60;;
32475;SDS011;18929;48.008;10.882;2022-08-01T02:54:36;2.87;;;1.70;;
32475;SDS011;18929;48.008;10.882;2022-08-01T02:57:05;3.47;;;2.00;;
32475;SDS011;18929;48.008;10.882;2022-08-01T02:59:33;3.03;;;1.70;;
32475;SDS011;18929;48.008;10.882;2022-08-01T03:02:03;4.50;;;1.70;;
32475;SDS011;18929;48.008;10.882;2022-08-01T03:04:32;4.70;;;2.15;;
32475;SDS011;18929;48.008;10.882;2022-08-01T03:07:03;3.67;;;2.10;;
32475;SDS011;18929;48.008;10.882;2022-08-01T03:09:34;2.03;;;1.63;;
32475;SDS011;18929;48.008;10.882;2022-08-01T03:12:04;2.75;;;1.60;;
32475;SDS011;18929;48.008;10.882;2022-08-01T03:14:35;3.17;;;1.80;;
32475;SDS011;18929;48.008;10.882;2022-08-01T03:17:05;2.13;;;1.70;;
32475;SDS011;18929;48.008;10.882;2022-08-01T03:19:34;2.75;;;1.52;;
32475;SDS011;18929;48.008;10.882;2022-08-01T03:22:02;2.22;;;1.77;;
32475;SDS011;18929;48.008;10.882;2022-08-01T03:24:32;2.28;;;1.70;;
32475;SDS011;18929;48.008;10.882;2022-08-01T03:27:00;2.92;;;1.90;;
32475;SDS011;18929;48.008;10.882;2022-08-01T03:29:28;3.20;;;2.10;;
32475;SDS011;18929;48.008;10.882;2022-08-01T03:31:58;3.15;;;1.85;;
32475;SDS011;18929;48.008;10.882;2022-08-01T03:34:27;3.10;;;1.90;;
32475;SDS011;18929;48.008;10.882;2022-08-01T03:36:58;4.30;;;2.00;;
32475;SDS011;18929;48.008;10.882;2022-08-01T03:39:30;2.85;;;1.90;;
32475;SDS011;18929;48.008;10.882;2022-08-01T03:42:01;3.15;;;1.80;;
32475;SDS011;18929;48.008;10.882;2022-08-01T03:44:33;4.20;;;1.83;;
32475;SDS011;18929;48.008;10.882;2022-08-01T03:47:05;2.67;;;1.90;;
32475;SDS011;18929;48.008;10.882;2022-08-01T03:49:35;2.50;;;1.75;;
32475;SDS011;18929;48.008;10.882;2022-08-01T03:52:09;2.30;;;1.70;;
32475;SDS011;18929;48.008;10.882;2022-08-01T03:54:38;3.72;;;1.92;;
32475;SDS011;18929;48.008;10.882;2022-08-01T03:57:09;3.70;;;1.73;;
32475;SDS011;18929;48.008;10.882;2022-08-01T03:59:36;3.20;;;1.73;;
32475;SDS011;18929;48.008;10.882;2022-08-01T04:02:04;4.32;;;1.83;;
32475;SDS011;18929;48.008;10.882;2022-08-01T04:04:32;3.38;;;1.90;;
32475;SDS011;18929;48.008;10.882;2022-08-01T04:06:59;1.85;;;1.60;;
32475;SDS011;18929;48.008;10.882;2022-08-01T04:09:31;2.80;;;1.88;;
32475;SDS011;18929;48.008;10.882;2022-08-01T04:11:58;3.63;;;2.08;;
32475;SDS011;18929;48.008;10.882;2022-08-01T04:14:26;2.42;;;1.75;;
32475;SDS011;18929;48.008;10.882;2022-08-01T04:16:53;3.30;;;2.03;;
32475;SDS011;18929;48.008;10.882;2022-08-01T04:19:20;2.20;;;1.58;;
32475;SDS011;18929;48.008;10.882;2022-08-01T04:21:47;2.70;;;1.50;;
32475;SDS011;18929;48.008;10.882;2022-08-01T04:24:15;2.80;;;1.83;;
32475;SDS011;18929;48.008;10.882;2022-08-01T04:26:46;3.03;;;1.75;;
32475;SDS011;18929;48.008;10.882;2022-08-01T04:29:16;3.13;;;1.98;;
32475;SDS011;18929;48.008;10.882;2022-08-01T04:31:46;2.22;;;1.63;;
32475;SDS011;18929;48.008;10.882;2022-08-01T04:34:15;3.50;;;1.75;;
32475;SDS011;18929;48.008;10.882;2022-08-01T04:36:45;2.97;;;1.83;;
32475;SDS011;18929;48.008;10.882;2022-08-01T04:39:14;4.03;;;1.73;;
32475;SDS011;18929;48.008;10.882;2022-08-01T04:41:43;2.42;;;1.63;;
32475;SDS011;18929;48.008;10.882;2022-08-01T04:44:13;3.75;;;1.98;;
32475;SDS011;18929;48.008;10.882;2022-08-01T04:46:40;3.22;;;1.67;;
32475;SDS011;18929;48.008;10.882;2022-08-01T04:49:08;2.55;;;1.42;;
32475;SDS011;18929;48.008;10.882;2022-08-01T04:51:48;3.15;;;1.88;;
32475;SDS011;18929;48.008;10.882;2022-08-01T04:54:16;2.97;;;1.85;;
32475;SDS011;18929;48.008;10.882;2022-08-01T04:56:43;2.78;;;1.70;;
32475;SDS011;18929;48.008;10.882;2022-08-01T04:59:12;2.28;;;1.55;;
32475;SDS011;18929;48.008;10.882;2022-08-01T05:01:57;2.72;;;1.80;;
32475;SDS011;18929;48.008;10.882;2022-08-01T05:04:24;2.35;;;1.65;;
32475;SDS011;18929;48.008;10.882;2022-08-01T05:06:51;2.67;;;1.80;;
32475;SDS011;18929;48.008;10.882;2022-08-01T05:09:17;3.45;;;2.00;;
32475;SDS011;18929;48.008;10.882;2022-08-01T05:11:45;2.88;;;1.77;;
32475;SDS011;18929;48.008;10.882;2022-08-01T05:14:14;2.65;;;1.92;;
32475;SDS011;18929;48.008;10.882;2022-08-01T05:16:41;4.18;;;2.00;;
32475;SDS011;18929;48.008;10.882;2022-08-01T05:19:07;3.33;;;2.17;;
32475;SDS011;18929;48.008;10.882;2022-08-01T05:21:35;3.88;;;2.05;;
32475;SDS011;18929;48.008;10.882;2022-08-01T05:24:03;2.10;;;1.52;;
32475;SDS011;18929;48.008;10.882;2022-08-01T05:26:30;3.13;;;1.88;;
32475;SDS011;18929;48.008;10.882;2022-08-01T05:28:58;2.28;;;1.73;;
32475;SDS011;18929;48.008;10.882;2022-08-01T05:31:26;4.28;;;2.10;;
32475;SDS011;18929;48.008;10.882;2022-08-01T05:33:55;4.57;;;2.17;;
32475;SDS011;18929;48.008;10.882;2022-08-01T05:36:22;4.50;;;1.90;;
32475;SDS011;18929;48.008;10.882;2022-08-01T05:38:49;2.65;;;1.80;;
32475;SDS011;18929;48.008;10.882;2022-08-01T05:41:15;4.32;;;2.40;;
32475;SDS011;18929;48.008;10.882;2022-08-01T05:43:43;3.58;;;2.10;;
32475;SDS011;18929;48.008;10.882;2022-08-01T05:46:09;4.32;;;1.85;;
32475;SDS011;18929;48.008;10.882;2022-08-01T05:48:38;5.32;;;2.10;;
32475;SDS011;18929;48.008;10.882;2022-08-01T05:51:05;2.35;;;1.42;;
32475;SDS011;18929;48.008;10.882;2022-08-01T05:53:33;7.18;;;2.25;;
32475;SDS011;18929;48.008;10.882;2022-08-01T05:56:00;3.13;;;1.92;;
32475;SDS011;18929;48.008;10.882;2022-08-01T05:58:27;4.03;;;2.00;;
32475;SDS011;18929;48.008;10.882;2022-08-01T06:00:54;3.65;;;2.13;;
32475;SDS011;18929;48.008;10.882;2022-08-01T06:03:21;5.65;;;2.00;;
32475;SDS011;18929;48.008;10.882;2022-08-01T06:05:50;5.72;;;2.05;;
32475;SDS011;18929;48.008;10.882;2022-08-01T06:08:18;3.20;;;1.85;;
32475;SDS011;18929;48.008;10.882;2022-08-01T06:10:45;5.35;;;2.13;;
32475;SDS011;18929;48.008;10.882;2022-08-01T06:13:12;3.60;;;1.90;;
32475;SDS011;18929;48.008;10.882;2022-08-01T06:15:39;6.97;;;1.90;;
32475;SDS011;18929;48.008;10.882;2022-08-01T06:18:06;5.65;;;1.77;;
32475;SDS011;18929;48.008;10.882;2022-08-01T06:20:33;4.32;;;2.17;;
32475;SDS011;18929;48.008;10.882;2022-08-01T06:23:01;3.45;;;2.00;;
32475;SDS011;18929;48.008;10.882;2022-08-01T06:25:29;4.22;;;1.90;;
32475;SDS011;18929;48.008;10.882;2022-08-01T06:27:56;4.20;;;2.10;;
32475;SDS011;18929;48.008;10.882;2022-08-01T06:30:23;2.80;;;2.10;;
32475;SDS011;18929;48.008;10.882;2022-08-01T06:32:59;4.15;;;2.00;;
32475;SDS011;18929;48.008;10.882;2022-08-01T06:35:26;4.93;;;2.25;;
32475;SDS011;18929;48.008;10.882;2022-08-01T06:37:54;5.50;;;2.40;;
32475;SDS011;18929;48.008;10.882;2022-08-01T06:40:23;4.55;;;2.30;;
32475;SDS011;18929;48.008;10.882;2022-08-01T06:42:50;3.40;;;2.03;;
32475;SDS011;18929;48.008;10.882;2022-08-01T06:45:17;5.28;;;2.50;;
32475;SDS011;18929;48.008;10.882;2022-08-01T06:47:47;3.90;;;2.17;;
32475;SDS011;18929;48.008;10.882;2022-08-01T06:50:14;3.92;;;2.40;;
32475;SDS011;18929;48.008;10.882;2022-08-01T06:52:41;5.63;;;2.47;;
32475;SDS011;18929;48.008;10.882;2022-08-01T06:55:08;2.97;;;2.38;;
32475;SDS011;18929;48.008;10.882;2022-08-01T06:57:39;4.40;;;2.10;;
32475;SDS011;18929;48.008;10.882;2022-08-01T07:03:34;3.50;;;2.30;;
32475;SDS011;18929;48.008;10.882;2022-08-01T07:06:01;5.60;;;2.15;;
32475;SDS011;18929;48.008;10.882;2022-08-01T07:08:29;4.45;;;2.28;;
32475;SDS011;18929;48.008;10.882;2022-08-01T07:10:56;7.07;;;2.40;;
32475;SDS011;18929;48.008;10.882;2022-08-01T07:13:26;4.05;;;2.13;;
32475;SDS011;18929;48.008;10.882;2022-08-01T07:15:53;4.07;;;2.22;;
32475;SDS011;18929;48.008;10.882;2022-08-01T07:18:20;4.20;;;2.22;;
32475;SDS011;18929;48.008;10.882;2022-08-01T07:20:47;3.58;;;2.42;;
32475;SDS011;18929;48.008;10.882;2022-08-01T07:23:14;4.10;;;2.00;;
32475;SDS011;18929;48.008;10.882;2022-08-01T07:25:42;3.22;;;2.25;;
32475;SDS011;18929;48.008;10.882;2022-08-01T07:28:09;8.75;;;2.42;;
32475;SDS011;18929;48.008;10.882;2022-08-01T07:30:37;3.45;;;2.38;;
32475;SDS011;18929;48.008;10.882;2022-08-01T07:33:07;4.78;;;2.70;;
32475;SDS011;18929;48.008;10.882;2022-08-01T07:35:34;4.38;;;2.53;;
32475;SDS011;18929;48.008;10.882;2022-08-01T07:38:03;4.35;;;2.28;;
32475;SDS011;18929;48.008;10.882;2022-08-01T07:40:30;5.07;;;2.60;;
32475;SDS011;18929;48.008;10.882;2022-08-01T07:42:57;4.88;;;2.40;;
32475;SDS011;18929;48.008;10.882;2022-08-01T07:45:33;6.18;;;2.50;;
32475;SDS011;18929;48.008;10.882;2022-08-01T07:48:03;4.00;;;2.42;;
32475;SDS011;18929;48.008;10.882;2022-08-01T07:50:30;8.40;;;2.75;;
32475;SDS011;18929;48.008;10.882;2022-08-01T07:52:57;4.07;;;2.38;;
32475;SDS011;18929;48.008;10.882;2022-08-01T07:55:24;6.85;;;2.55;;
32475;SDS011;18929;48.008;10.882;2022-08-01T07:57:52;6.05;;;3.05;;
32475;SDS011;18929;48.008;10.882;2022-08-01T08:00:18;5.72;;;2.53;;
32475;SDS011;18929;48.008;10.882;2022-08-01T08:02:45;4.68;;;2.60;;
32475;SDS011;18929;48.008;10.882;2022-08-01T08:05:14;5.63;;;3.00;;
32475;SDS011;18929;48.008;10.882;2022-08-01T08:07:41;5.93;;;2.70;;
32475;SDS011;18929;48.008;10.882;2022-08-01T08:10:08;4.63;;;2.90;;
32475;SDS011;18929;48.008;10.882;2022-08-01T08:12:35;3.78;;;2.85;;
32475;SDS011;18929;48.008;10.882;2022-08-01T08:15:03;6.13;;;2.88;;
32475;SDS011;18929;48.008;10.882;2022-08-01T08:17:31;3.95;;;2.58;;
32475;SDS011;18929;48.008;10.882;2022-08-01T08:19:58;4.78;;;2.92;;
32475;SDS011;18929;48.008;10.882;2022-08-01T08:22:27;3.88;;;2.30;;
32475;SDS011;18929;48.008;10.882;2022-08-01T08:24:54;3.60;;;2.50;;
32475;SDS011;18929;48.008;10.882;2022-08-01T08:27:21;4.40;;;2.65;;
32475;SDS011;18929;48.008;10.882;2022-08-01T08:29:48;5.32;;;2.20;;
32475;SDS011;18929;48.008;10.882;2022-08-01T08:32:15;4.85;;;2.83;;
32475;SDS011;18929;48.008;10.882;2022-08-01T08:34:42;8.20;;;2.85;;
32475;SDS011;18929;48.008;10.882;2022-08-01T08:37:09;3.58;;;2.40;;
32475;SDS011;18929;48.008;10.882;2022-08-01T08:39:38;3.95;;;2.78;;
32475;SDS011;18929;48.008;10.882;2022-08-01T08:42:06;3.40;;;2.42;;
32475;SDS011;18929;48.008;10.882;2022-08-01T08:44:33;3.88;;;2.47;;
32475;SDS011;18929;48.008;10.882;2022-08-01T08:47:01;5.53;;;2.65;;
32475;SDS011;18929;48.008;10.882;2022-08-01T08:49:30;4.78;;;2.30;;
32475;SDS011;18929;48.008;10.882;2022-08-01T08:51:59;2.90;;;2.40;;
32475;SDS011;18929;48.008;10.882;2022-08-01T08:54:27;3.22;;;2.47;;
32475;SDS011;18929;48.008;10.882;2022-08-01T08:56:57;7.00;;;2.60;;
32475;SDS011;18929;48.008;10.882;2022-08-01T08:59:26;7.13;;;2.38;;
32475;SDS011;18929;48.008;10.882;2022-08-01T09:01:54;5.70;;;2.80;;
32475;SDS011;18929;48.008;10.882;2022-08-01T09:04:21;3.22;;;2.40;;
32475;SDS011;18929;48.008;10.882;2022-08-01T09:06:48;2.83;;;2.05;;
32475;SDS011;18929;48.008;10.882;2022-08-01T09:09:16;3.63;;;2.05;;
32475;SDS011;18929;48.008;10.882;2022-08-01T09:11:43;3.50;;;2.60;;
32475;SDS011;18929;48.008;10.882;2022-08-01T09:14:12;3.45;;;2.05;;
32475;SDS011;18929;48.008;10.882;2022-08-01T09:16:47;5.95;;;2.20;;
32475;SDS011;18929;48.008;10.882;2022-08-01T09:19:26;2.63;;;1.98;;
32475;SDS011;18929;48.008;10.882;2022-08-01T09:22:02;5.95;;;2.40;;
32475;SDS011;18929;48.008;10.882;2022-08-01T09:24:32;3.60;;;2.05;;
32475;SDS011;18929;48.008;10.882;2022-08-01T09:27:00;3.95;;;2.13;;
32475;SDS011;18929;48.008;10.882;2022-08-01T09:29:42;3.83;;;2.42;;
32475;SDS011;18929;48.008;10.882;2022-08-01T09:32:09;2.47;;;1.75;;
32475;SDS011;18929;48.008;10.882;2022-08-01T09:34:36;3.47;;;2.20;;
32475;SDS011;18929;48.008;10.882;2022-08-01T09:37:03;4.60;;;2.47;;
32475;SDS011;18929;48.008;10.882;2022-08-01T09:39:31;3.25;;;2.20;;
32475;SDS011;18929;48.008;10.882;2022-08-01T09:42:18;4.68;;;2.03;;
32475;SDS011;18929;48.008;10.882;2022-08-01T09:44:47;3.67;;;2.22;;
32475;SDS011;18929;48.008;10.882;2022-08-01T09:47:14;5.40;;;2.50;;
32475;SDS011;18929;48.008;10.882;2022-08-01T09:49:43;3.10;;;2.10;;
32475;SDS011;18929;48.008;10.882;2022-08-01T09:52:11;3.53;;;2.10;;
32475;SDS011;18929;48.008;10.882;2022-08-01T09:54:40;2.38;;;1.80;;
32475;SDS011;18929;48.008;10.882;2022-08-01T09:57:09;2.83;;;1.95;;
32475;SDS011;18929;48.008;10.882;2022-08-01T09:59:38;4.38;;;2.25;;
32475;SDS011;18929;48.008;10.882;2022-08-01T10:02:09;2.88;;;1.77;;
32475;SDS011;18929;48.008;10.882;2022-08-01T10:04:45;5.17;;;2.23;;
32475;SDS011;18929;48.008;10.882;2022-08-01T10:07:13;2.42;;;1.75;;
32475;SDS011;18929;48.008;10.882;2022-08-01T10:09:41;3.75;;;2.10;;
32475;SDS011;18929;48.008;10.882;2022-08-01T10:12:10;4.30;;;1.90;;
32475;SDS011;18929;48.008;10.882;2022-08-01T10:14:38;3.38;;;1.63;;
32475;SDS011;18929;48.008;10.882;2022-08-01T10:17:07;2.90;;;2.22;;
32475;SDS011;18929;48.008;10.882;2022-08-01T10:19:38;3.30;;;1.88;;
32475;SDS011;18929;48.008;10.882;2022-08-01T10:22:07;4.93;;;2.15;;
32475;SDS011;18929;48.008;10.882;2022-08-01T10:24:36;5.35;;;1.70;;
32475;SDS011;18929;48.008;10.882;2022-08-01T10:27:05;2.95;;;1.60;;
32475;SDS011;18929;48.008;10.882;2022-08-01T10:29:35;4.25;;;1.90;;
32475;SDS011;18929;48.008;10.882;2022-08-01T10:32:06;2.95;;;1.90;;
32475;SDS011;18929;48.008;10.882;2022-08-01T10:34:35;4.13;;;1.75;;
32475;SDS011;18929;48.008;10.882;2022-08-01T10:37:03;2.55;;;1.67;;
32475;SDS011;18929;48.008;10.882;2022-08-01T10:39:32;4.43;;;1.95;;
32475;SDS011;18929;48.008;10.882;2022-08-01T10:41:59;4.85;;;2.05;;
32475;SDS011;18929;48.008;10.882;2022-08-01T10:44:28;3.55;;;2.15;;
32475;SDS011;18929;48.008;10.882;2022-08-01T10:46:57;3.40;;;1.52;;
32475;SDS011;18929;48.008;10.882;2022-08-01T10:49:29;2.75;;;1.83;;
32475;SDS011;18929;48.008;10.882;2022-08-01T10:52:00;3.83;;;1.67;;
32475;SDS011;18929;48.008;10.882;2022-08-01T10:54:27;5.78;;;1.83;;
32475;SDS011;18929;48.008;10.882;2022-08-01T10:56:54;2.40;;;1.73;;
32475;SDS011;18929;48.008;10.882;2022-08-01T10:59:26;3.00;;;1.90;;
32475;SDS011;18929;48.008;10.882;2022-08-01T11:01:57;2.58;;;1.50;;
32475;SDS011;18929;48.008;10.882;2022-08-01T11:04:32;6.18;;;1.83;;
32475;SDS011;18929;48.008;10.882;2022-08-01T11:07:05;2.65;;;1.60;;
32475;SDS011;18929;48.008;10.882;2022-08-01T11:09:40;3.05;;;1.70;;
32475;SDS011;18929;48.008;10.882;2022-08-01T11:12:09;3.67;;;1.80;;
32475;SDS011;18929;48.008;10.882;2022-08-01T11:17:49;3.10;;;1.55;;
32475;SDS011;18929;48.008;10.882;2022-08-01T11:20:18;3.03;;;1.77;;
32475;SDS011;18929;48.008;10.882;2022-08-01T11:26:07;2.92;;;1.42;;
32475;SDS011;18929;48.008;10.882;2022-08-01T11:28:35;4.15;;;1.50;;
32475;SDS011;18929;48.008;10.882;2022-08-01T11:33:58;4.07;;;1.60;;
32475;SDS011;18929;48.008;10.882;2022-08-01T11:36:25;1.80;;;1.40;;
32475;SDS011;18929;48.008;10.882;2022-08-01T11:39:12;2.47;;;1.42;;
32475;SDS011;18929;48.008;10.882;2022-08-01T11:41:42;2.20;;;1.40;;
32475;SDS011;18929;48.008;10.882;2022-08-01T11:44:11;5.32;;;1.50;;
32475;SDS011;18929;48.008;10.882;2022-08-01T11:46:46;3.63;;;1.35;;
32475;SDS011;18929;48.008;10.882;2022-08-01T11:49:23;3.17;;;1.77;;
32475;SDS011;18929;48.008;10.882;2022-08-01T11:52:08;2.50;;;1.40;;
32475;SDS011;18929;48.008;10.882;2022-08-01T11:54:36;2.88;;;1.30;;
32475;SDS011;18929;48.008;10.882;2022-08-01T11:57:06;6.40;;;1.60;;
32475;SDS011;18929;48.008;10.882;2022-08-01T11:59:35;3.08;;;1.58;;
32475;SDS011;18929;48.008;10.882;2022-08-01T12:02:06;2.88;;;1.60;;
32475;SDS011;18929;48.008;10.882;2022-08-01T12:04:49;2.50;;;1.40;;
32475;SDS011;18929;48.008;10.882;2022-08-01T12:07:20;4.18;;;1.58;;
32475;SDS011;18929;48.008;10.882;2022-08-01T12:09:48;2.85;;;1.50;;
32475;SDS011;18929;48.008;10.882;2022-08-01T12:12:25;3.08;;;1.38;;
32475;SDS011;18929;48.008;10.882;2022-08-01T12:14:54;3.58;;;1.60;;
32475;SDS011;18929;48.008;10.882;2022-08-01T12:17:28;3.30;;;1.60;;
32475;SDS011;18929;48.008;10.882;2022-08-01T12:19:57;2.90;;;1.67;;
32475;SDS011;18929;48.008;10.882;2022-08-01T12:22:24;3.78;;;1.63;;
32475;SDS011;18929;48.008;10.882;2022-08-01T12:24:51;3.58;;;1.50;;
32475;SDS011;18929;48.008;10.882;2022-08-01T12:27:27;2.58;;;1.55;;
32475;SDS011;18929;48.008;10.882;2022-08-01T12:29:55;3.35;;;1.65;;
32475;SDS011;18929;48.008;10.882;2022-08-01T12:32:24;3.65;;;1.23;;
32475;SDS011;18929;48.008;10.882;2022-08-01T12:34:56;3.65;;;1.50;;
32475;SDS011;18929;48.008;10.882;2022-08-01T12:37:23;4.68;;;1.50;;
32475;SDS011;18929;48.008;10.882;2022-08-01T12:39:50;2.53;;;1.50;;
32475;SDS011;18929;48.008;10.882;2022-08-01T12:42:17;2.53;;;1.25;;
32475;SDS011;18929;48.008;10.882;2022-08-01T12:44:48;3.17;;;1.27;;
32475;SDS011;18929;48.008;10.882;2022-08-01T12:49:44;1.85;;;1.38;;
32475;SDS011;18929;48.008;10.882;2022-08-01T12:52:13;1.92;;;1.20;;
32475;SDS011;18929;48.008;10.882;2022-08-01T12:57:35;3.47;;;1.60;;
32475;SDS011;18929;48.008;10.882;2022-08-01T13:00:15;2.60;;;1.50;;
32475;SDS011;18929;48.008;10.882;2022-08-01T13:02:45;3.33;;;1.50;;
32475;SDS011;18929;48.008;10.882;2022-08-01T13:05:13;3.25;;;1.00;;
32475;SDS011;18929;48.008;10.882;2022-08-01T13:07:44;2.40;;;1.40;;
32475;SDS011;18929;48.008;10.882;2022-08-01T13:10:12;3.45;;;1.40;;
32475;SDS011;18929;48.008;10.882;2022-08-01T13:12:42;3.55;;;1.38;;
32475;SDS011;18929;48.008;10.882;2022-08-01T13:15:20;1.73;;;1.17;;
32475;SDS011;18929;48.008;10.882;2022-08-01T13:20:23;1.65;;;1.02;;
32475;SDS011;18929;48.008;10.882;2022-08-01T13:22:52;2.58;;;1.30;;
32475;SDS011;18929;48.008;10.882;2022-08-01T13:25:20;1.83;;;1.17;;
32475;SDS011;18929;48.008;10.882;2022-08-01T13:27:47;2.00;;;1.08;;
32475;SDS011;18929;48.008;10.882;2022-08-01T13:30:15;1.52;;;1.00;;
32475;SDS011;18929;48.008;10.882;2022-08-01T13:32:53;3.03;;;1.08;;
32475;SDS011;18929;48.008;10.882;2022-08-01T13:35:27;2.50;;;1.30;;
32475;SDS011;18929;48.008;10.882;2022-08-01T13:37:54;2.55;;;1.13;;
32475;SDS011;18929;48.008;10.882;2022-08-01T13:40:25;1.85;;;1.15;;
32475;SDS011;18929;48.008;10.882;2022-08-01T13:42:53;2.90;;;1.25;;
32475;SDS011;18929;48.008;10.882;2022-08-01T13:45:21;2.03;;;1.00;;
32475;SDS011;18929;48.008;10.882;2022-08-01T13:47:50;2.85;;;1.20;;
32475;SDS011;18929;48.008;10.882;2022-08-01T13:50:17;5.30;;;1.23;;
32475;SDS011;18929;48.008;10.882;2022-08-01T13:52:44;7.07;;;1.30;;
32475;SDS011;18929;48.008;10.882;2022-08-01T13:55:11;3.45;;;1.40;;
32475;SDS011;18929;48.008;10.882;2022-08-01T13:57:38;7.82;;;2.03;;
32475;SDS011;18929;48.008;10.882;2022-08-01T14:00:06;2.92;;;1.33;;
32475;SDS011;18929;48.008;10.882;2022-08-01T14:02:35;4.57;;;1.50;;
32475;SDS011;18929;48.008;10.882;2022-08-01T14:05:03;3.15;;;1.63;;
32475;SDS011;18929;48.008;10.882;2022-08-01T14:07:31;3.70;;;1.40;;
32475;SDS011;18929;48.008;10.882;2022-08-01T14:09:58;7.53;;;1.75;;
32475;SDS011;18929;48.008;10.882;2022-08-01T14:12:26;3.25;;;1.80;;
32475;SDS011;18929;48.008;10.882;2022-08-01T14:14:53;3.05;;;1.40;;
32475;SDS011;18929;48.008;10.882;2022-08-01T14:17:20;3.22;;;1.70;;
32475;SDS011;18929;48.008;10.882;2022-08-01T14:19:47;3.63;;;1.63;;
32475;SDS011;18929;48.008;10.882;2022-08-01T14:22:15;4.97;;;2.38;;
32475;SDS011;18929;48.008;10.882;2022-08-01T14:24:42;3.03;;;1.45;;
32475;SDS011;18929;48.008;10.882;2022-08-01T14:27:09;4.63;;;1.60;;
32475;SDS011;18929;48.008;10.882;2022-08-01T14:29:36;5.60;;;2.00;;
32475;SDS011;18929;48.008;10.882;2022-08-01T14:32:03;4.30;;;1.80;;
32475;SDS011;18929;48.008;10.882;2022-08-01T14:34:31;3.22;;;1.60;;
32475;SDS011;18929;48.008;10.882;2022-08-01T14:36:58;5.65;;;1.73;;
32475;SDS011;18929;48.008;10.882;2022-08-01T14:39:26;5.28;;;1.75;;
32475;SDS011;18929;48.008;10.882;2022-08-01T14:41:53;3.03;;;1.70;;
32475;SDS011;18929;48.008;10.882;2022-08-01T14:44:20;6.45;;;2.13;;
32475;SDS011;18929;48.008;10.882;2022-08-01T14:46:47;5.90;;;1.77;;
32475;SDS011;18929;48.008;10.882;2022-08-01T14:49:14;4.28;;;2.20;;
32475;SDS011;18929;48.008;10.882;2022-08-01T14:51:41;6.32;;;1.90;;
32475;SDS011;18929;48.008;10.882;2022-08-01T14:54:08;4.18;;;1.85;;
32475;SDS011;18929;48.008;10.882;2022-08-01T14:56:37;3.17;;;1.67;;
32475;SDS011;18929;48.008;10.882;2022-08-01T14:59:04;5.20;;;1.50;;
32475;SDS011;18929;48.008;10.882;2022-08-01T15:01:31;3.83;;;1.75;;
32475;SDS011;18929;48.008;10.882;2022-08-01T15:03:58;3.22;;;1.83;;
32475;SDS011;18929;48.008;10.882;2022-08-01T15:06:25;3.92;;;1.80;;